arxmliv
arxmliv build tool
 
KWARC group
LaTeXML
About
   
 

Detailed info

Back to Homepage

List of missing_macros

No. Date Filename num_warningnum_errornum_xmargok_xmargnum_xmathok_xmathMissing macros
93001 2013-03-13 04:36:13 /0806/0806.1906 36710000[\mathds].
93002 2013-03-13 04:36:03 /0806/0806.1931 320000[\a]; 1 missing file[pst-all.sty].
93003 2013-03-13 04:35:55 /0806/0806.1933 080000[\sodauthor, \rauthor, \address, \sodtitle, \dates, \lat, \PACS, \rtitle].
93004 2013-03-13 04:35:39 /0806/0806.1928 14190000[\lTo, \xymatrix, \ruTo, \rTo, \rdTo, \uTo, Align, \dTo, \ldDashto, \ldTo, {diagram}, \ar]; 1 missing file[xy.sty].
93005 2013-03-13 04:35:26 /0806/0806.1866 29760000[\protected@edef, \columncolor, \arrayrulecolor].
93006 2013-03-13 04:35:02 /0806/0806.1910 1220000[\theappendix].
93007 2013-03-13 04:34:31 /0806/0806.1916 15200000[\arXivid, \isotope, \hepex, \acknowledgments, \keywords, \includegraphics, \href, \email, \physics, \astroph]; 2 missing files[isotope.sty, JINST.cls].
93008 2013-03-13 04:34:20 /0806/0806.1901 760000[\extrasenglish, \textipa, \geometry, \dateenglish, \captionsenglish]; 1 missing file[tipa.sty].
93009 2013-03-13 04:34:15 /0806/0806.1887 11120000[Align, \xymatrix, \ar]; 9 missing files[xycurve.sty, xymatrix.sty, xyline.sty, xyarrow.sty, xycmtip.sty, xycolor.sty, xyrotate.sty, xyframe.sty, xygraph.sty].
93010 2013-03-13 04:34:12 /0806/0806.1904 030000[\extrasenglish, \dateenglish, \captionsenglish].
93011 2013-03-13 04:34:11 /0806/0806.1863 141680000[Align, \xymatrix, \entrymodifiers, \ar]; 1 missing file[xy.sty].
93012 2013-03-13 04:34:09 /0806/0806.1918 060000[\crdata, \conferenceinfo, \CopyrightYear, \category, \terms, \keywords].
93013 2013-03-13 04:33:39 /0806/0806.1891 030000[\onltab, \onllongtab].
93014 2013-03-13 04:32:37 /0806/0806.1858 56180000[{acknowledgments}, \ls, \iffontfound, \ifCUPmtlplainloaded, \affiliation, \ns, {subequations}, \mathsfbi, \checkfont]; 1 missing file[jfm.cls].
93015 2013-03-13 04:32:31 /0806/0806.1827 33270000[\texttt, \\, \title, \date, \thanks, \drawline, \author].
93016 2013-03-13 04:32:05 /0806/0806.1848 2750000[{comment}]; 3 missing files[microtype.sty, epic%.sty, hyperref%.sty].
93017 2013-03-13 04:31:24 /0806/0806.1860 1410000[\geometry].
93018 2013-03-13 04:30:35 /0806/0806.1833 610000[\psfrag].
93019 2013-03-13 04:30:30 /0806/0806.1824 22180000[\arcmin, \inst, \degr, \institute, \offprints, \ga, \la, \keywords, \theappendix, \email, \farcm, \psfrag, \titlerunning, \arcsec, \fdg, \authorrunning, {acknowledgements}]; 1 missing file[aa_5.cls].
93020 2013-03-13 04:30:23 /0806/0806.1834 1020000[\authorblockN, \authorblockA]; 1 missing file[IEEEtran.cls].
93021 2013-03-13 04:29:43 /0806/0806.1832 550000[Align, \SelectTips, \xymatrix, \ar]; 1 missing file[xy.sty].
93022 2013-03-13 04:29:40 /0806/0806.1840 910000[\affiliation]; 1 missing file[qm2008_abs.cls].
93023 2013-03-13 04:29:13 /0806/0806.1825 180000[{acknowledgments}, \authors, \altaffiltext, {article}, \linenumbers, \authorrunninghead, \altaffilmark, \titlerunninghead]; 1 missing file[agu2001.cls].
93024 2013-03-13 04:29:07 /0806/0806.1829 480000[{acknowledgments}, \authors, \altaffiltext, {article}, \authoraddr, \authorrunninghead, \altaffilmark, \titlerunninghead]; 1 missing file[agu2001.cls].
93025 2013-03-13 04:28:59 /0806/0806.1813 280000[\includegraphics, \ShortTitle, \FullConference, \speaker]; 1 missing file[PoS.cls].
93026 2013-03-13 04:28:51 /0806/0806.1819 720000[\authorblockN, \authorblockA]; 1 missing file[IEEEtran.cls].
93027 2013-03-13 04:28:41 /0806/0806.1806 2660000[\theoremheaderfont, \renewtheorem, \theorembodyfont, \theoremstyle, \theoremseparator, \theoremsymbol].
93028 2013-03-13 04:28:29 /0806/0806.1810 420000[{sidewaystable}].
93029 2013-03-13 04:28:21 /0806/0806.1804 050000[\catchline, {history}, \psfig, \revised, \received].
93030 2013-03-13 04:28:12 /0806/0806.1797 1770000[\KwData, \If, \For, {algorithm}, \ForEach, \Else, \KwResult].
93031 2013-03-13 04:28:11 /0806/0806.1811 280000[\inst, \institute, \keywords, \email, \volnopage, \titlerunning, \authorrunning, {acknowledgements}]; 1 missing file[chjaa.cls].
93032 2013-03-13 04:28:10 /0806/0806.1805 060000[\keyword, \PACS, \topage, \frompage, \authors]; 1 missing file[spadre2008.sty].
93033 2013-03-13 04:28:04 /0806/0806.1809 1110000[\pdfadjustspacing].
93034 2013-03-13 04:27:28 /0806/0806.1795 620000[{history}, \psfig].
93035 2013-03-13 04:27:07 /0806/0806.1774 2750000[\Yboxdim, \trianglerighteqslant, \ntrianglerighteqslant, \young].
93036 2013-03-13 04:26:25 /0806/0806.1765 1630000[\bibselect].
93037 2013-03-13 04:26:09 /0806/0806.1781 5680000[{thereferences}]; 1 missing file[rob-999.sty].
93038 2013-03-13 04:26:08 /0806/0806.1709 7940000[\mathds, \externaldocument].
93039 2013-03-13 04:25:52 /0806/0806.1778 16160000[\bra, \seteaddress, \ketbra, \Tr, \addressmark, \ket, \keywords]; 1 missing file[mymacro.sty].
93040 2013-03-13 04:25:47 /0806/0806.1761 230000[\heavyrulewidth, \midrule, \bottomrule].
93041 2013-03-13 04:25:19 /0806/0806.1751 430000[\geometry].
93042 2013-03-13 04:25:08 /0806/0806.1767 3120000[Align, \xymatrix, \ar]; 9 missing files[xycurve.sty, xymatrix.sty, xyline.sty, xyarrow.sty, xycmtip.sty, xycolor.sty, xyrotate.sty, xyframe.sty, xygraph.sty].
93043 2013-03-13 04:24:59 /0806/0806.1746 1090000[{definition}, {lemma}, {theorem}, {corollary}, {AMS}, {proof}, {proposition}].
93044 2013-03-13 04:24:58 /0806/0806.1770 0170000[\affil, \apj, \citep, \citet, \tableline, \nat, \aap]; 1 missing file[prcsa2008.sty].
93045 2013-03-13 04:24:41 /0806/0806.1755 1100000[\arcmin, \citenum, \authorinfo, \acknowledgments, \keywords, \ion, \arcsec, \skiplinehalf, \supit]; 1 missing file[spie.cls].
93046 2013-03-13 04:24:27 /0806/0806.1708 4140000[\mathds, \externaldocument].
93047 2013-03-13 04:24:23 /0806/0806.1749 56650000[\sOrt, \linia, \jenv, \mreg, \titlecomment, \lsuper, \eps, \mar, {exa}, \nat, \address, \subjclass, {program}, \prf, \comp, {lem}, {defi}, \lam, \Acc, \nregula, \lmcsheading, \app, \keywords, \wregula, \ok, \rew, \unifeq, \ind, \Var, \norm, \PTSSorts, \h
93048 2013-03-13 04:23:56 /0806/0806.1736 2810000[Align].
93049 2013-03-13 04:23:35 /0806/0806.1723 2150000[\grid, \dottedline, \Thicklines, \drawline, \path].
93050 2013-03-13 04:23:18 /0806/0806.1738 010000[\a].
93051 2013-03-13 04:23:07 /0806/0806.1717 5180000[\includegraphics, \abstracts]; 1 missing file[ws.sty].
93052 2013-03-13 04:23:04 /0806/0806.1700 410000[\theappendix].
93053 2013-03-13 04:22:45 /0806/0806.1716 1510000[\dsum].
93054 2013-03-13 04:22:39 /0806/0806.1690 3430000[\mathds].
93055 2013-03-13 04:22:37 /0806/0806.1712 050000[\copyrightyear, {theacknowledgments}, \layoutstyle, \tablehead, \classification].
93056 2013-03-13 04:22:27 /0806/0806.1703 3460000[\surname, \runningauthor, \institute, {opening}, {article}, \keywords].
93057 2013-03-13 04:22:27 /0806/0806.1714 160000[\source, \copyrightyear, {theacknowledgments}, \layoutstyle, \tablehead, \classification].
93058 2013-03-13 04:22:19 /0806/0806.1705 1130000[Align, \xymatrix, \ar].
93059 2013-03-13 04:21:56 /0806/0806.1689 1320000[\icarus, \na].
93060 2013-03-13 04:21:49 /0806/0806.1637 8810000[{comment}].
93061 2013-03-13 04:21:24 /0806/0806.1682 1910000[\citen].
93062 2013-03-13 04:20:57 /0806/0806.1686 610000[\theappendix].
93063 2013-03-13 04:20:45 /0806/0806.1669 1720000[\braket, \ket].
93064 2013-03-13 04:20:31 /0806/0806.1655 1620000[\@end@institute]; 1 missing file[type1cm.sty].
93065 2013-03-13 04:20:14 /0806/0806.1670 030000[{theacknowledgments}, \layoutstyle, \classification].
93066 2013-03-13 04:20:11 /0806/0806.1636 4130000[\N, \mathfrak]; 1 missing file[ams.sty].
93067 2013-03-13 04:20:09 /0806/0806.1673 230000[{theacknowledgments}, \layoutstyle, \classification].
93068 2013-03-13 04:20:01 /0806/0806.1657 050000[\extrasenglish, \nofiles, \dateenglish, \captionsenglish]; 1 missing file[pslatex.sty].
93069 2013-03-13 04:19:29 /0806/0806.1626 2850000[{acknowledgments}, \kword, \abst, \inst, \citen].
93070 2013-03-13 04:19:25 /0806/0806.1632 21220000[{lemma}, {theorem}, \EmailD, \pdfbookmark, \LastPageEnding, \Classification, \ArticleDates, {example}, {remark}, \AuthorNameForHeading, {proposition}, \Abstract, \ArticleName, \ShortArticleName, \FirstPageHeading, \Address, \Author, {definition}, \Keywor
93071 2013-03-13 04:19:22 /0806/0806.1631 3320000[{sidewaystable}].
93072 2013-03-13 04:19:14 /0806/0806.1640 16120000[\KwData, {algorithm}, \authorblockA, \ForEach, \IEEEpeerreviewmaketitle, \Else, \KwResult, \authorblockN, \If, \For, \lIf]; 1 missing file[IEEEtran.cls].
93073 2013-03-13 04:18:58 /0806/0806.1585 6210000[\geometry].
93074 2013-03-13 04:18:20 /0806/0806.1586 8810000[\theappendix].
93075 2013-03-13 04:18:10 /0806/0806.1623 170000[\includegraphics, \ShortTitle, \email, \FullConference, \resizebox, \speaker]; 1 missing file[PoS.cls].
93076 2013-03-13 04:18:09 /0806/0806.1627 030000[\extrasenglish, \dateenglish, \captionsenglish].
93077 2013-03-13 04:18:01 /0806/0806.1630 110000[\@ignoretrue].
93078 2013-03-13 04:17:53 /0806/0806.1612 040000[\kword, \abst, \inst, \mib].
93079 2013-03-13 04:17:43 /0806/0806.1610 130000[\address, \email, \keywords]; 1 missing file[issa.cls].
93080 2013-03-13 04:17:36 /0806/0806.1618 1470000[{acknowledgments}, \ls, \affiliation, \ns, \pagerange, \volume, \pubyear]; 1 missing file[jfm.cls].
93081 2013-03-13 04:17:27 /0806/0806.1611 1300000[\affil, \apj, \aj, \citep, \apjl, \aap, \mnras, \citet, \araa]; 1 missing file[prcsa2008.sty].
93082 2013-03-13 04:17:13 /0806/0806.1604 2650000[\kword, \abst, \inst, \recdate]; 1 missing file[type1cm.sty].
93083 2013-03-13 04:16:52 /0806/0806.1566 42170000[Align, \restore, \save, \object, \SelectTips, \xymatrix, \ar]; 1 missing file[xy.sty].
93084 2013-03-13 04:16:38 /0806/0806.1451 45680000[\frontmatter, \thechapter, \@currentID, \ihead, \chead, \mainmatter, \ohead, \backmatter].
93085 2013-03-13 04:16:30 /0806/0806.1590 030000[{theacknowledgments}, \layoutstyle, \classification].
93086 2013-03-13 04:16:28 /0806/0806.1577 2250000[{keywords}, {IEEEbiography}, \IEEEmembership, \appendices, {proof}]; 1 missing file[IEEEtran.cls].
93087 2013-03-13 04:16:28 /0806/0806.1594 21140000[\Book, \pacs, \inst, \shortauthor, \institute, \acknowledgments, \includegraphics, \gtrsim, \shorttitle, \Name, \blacktriangle, \REVIEW, \etal]; 2 missing files[qsymbols.sty, epl2.cls].
93088 2013-03-13 04:16:22 /0806/0806.1565 5080000[{IEEEkeywords}, \IEEEPARstart, \dsum, \IEEEpeerreviewmaketitle, \IEEEmembership, \ifCLASSINFOpdf]; 1 missing file[IEEEtran.cls].
93089 2013-03-13 04:16:14 /0806/0806.1572 490000[\hair, \pinlabel, \endlabellist, \labellist]; 1 missing file[pinlabel.sty].
93090 2013-03-13 04:16:02 /0806/0806.1562 030000[\extrasenglish, \dateenglish, \captionsenglish].
93091 2013-03-13 04:15:34 /0806/0806.1551 110000[\citenum].
93092 2013-03-13 04:15:31 /0806/0806.1570 720000[\scrO, \scrZ].
93093 2013-03-13 04:15:09 /0806/0806.1532 4730000[\xhookrightarrow, \xhookleftarrow, \dashline].
93094 2013-03-13 04:14:43 /0806/0806.1543 140000[\authorblockN, \specialpapernotice, \authorblockA, \IEEEpeerreviewmaketitle]; 1 missing file[IEEEtran.cls].
93095 2013-03-13 04:14:40 /0806/0806.1542 010000[\unit].
93096 2013-03-13 04:14:38 /0806/0806.1544 0530000[Align, \xymatrix, \ar]; 1 missing file[xy.sty].
93097 2013-03-13 04:14:29 /0806/0806.1519 15230000[\slashed, \citet]; 1 missing file[pst-all.sty].
93098 2013-03-13 04:14:25 /0806/0806.1531 3150000[\epubtkKeywords, \epubtkImage, \epubtkAuthorData]; 1 missing file[epubtk.sty].
93099 2013-03-13 04:14:04 /0806/0806.1530 020000[\journalinfo]; 1 missing file[apjfonts.sty].
93100 2013-03-13 04:13:28 /0806/0806.1524 330000[\citeN, \citeNP]; 1 missing file[astrobib.sty].
93101 2013-03-13 04:12:43 /0806/0806.1392 3060000[{lemma}, {theorem}, {corollary}, {AMS}, \psfrag, \endproof].
93102 2013-03-13 04:12:38 /0806/0806.1503 610000[\examplename].
93103 2013-03-13 04:12:36 /0806/0806.1502 1040000[Align, \xymatrix, \ar]; 1 missing file[xy.sty].
93104 2013-03-13 04:12:35 /0806/0806.1476 4860000[Align, \xyoption, \xymatrix, \ar]; 1 missing file[xy.sty].
93105 2013-03-13 04:12:32 /0806/0806.1515 1110000[\nofiles].
93106 2013-03-13 04:11:38 /0806/0806.1494 7350000[{pspicture}, \psset, \Tr, \red, \pstree, \blue, \rput, \psline, \psgrid, \psframe, \pscircle]; 1 missing file[pst-tree.sty].
93107 2013-03-13 04:11:19 /0806/0806.1506 310000[\theappendix].
93108 2013-03-13 04:11:01 /0806/0806.1433 43130000[\FAVert, \FADiagram, {feynartspicture}, \FALabel, \FAProp].
93109 2013-03-13 04:10:59 /0806/0806.1493 030000[\extrasenglish, \dateenglish, \captionsenglish].
93110 2013-03-13 04:10:22 /0806/0806.1465 140000[\address, \runningheads, {Abstract}, {start}]; 1 missing file[lt7-proc.cls].
93111 2013-03-13 04:10:20 /0806/0806.1482 020000[\apjl]; 1 missing file[aas_macros.sty].
93112 2013-03-13 04:10:09 /0806/0806.1466 13130000[\Abstract, \ArticleName, \EmailD, \ShortArticleName, \FirstPageHeading, \Address, \pdfbookmark, \LastPageEnding, \Classification, \ArticleDates, \Author, \AuthorNameForHeading, \Keywords].
93113 2013-03-13 04:09:37 /0806/0806.1471 020000[\ack, \ead].
93114 2013-03-13 04:09:25 /0806/0806.1456 16170000[\pacs, \inst, \acknowledgments, \Page, \shorttitle, \Section, \Year, \etal, \Book, \shortauthor, \institute, \includegraphics, \Publ, \Name, \Editor, \Vol, \REVIEW]; 1 missing file[epl2.cls].
93115 2013-03-13 04:09:17 /0806/0806.1440 22930000[Align, \xymatrix, \ar].
93116 2013-03-13 04:08:59 /0806/0806.1452 6330000[{centering}].
93117 2013-03-13 04:08:21 /0806/0806.1436 2280000[Align, \restore, \save, \txt, \xymatrix, \ar]; 2 missing files[flafter.sty, xy.sty].
93118 2013-03-13 04:08:11 /0806/0806.1432 590000[{acknowledgments}, \firstsection, \editors, \affiliation, \jname, \pagerange, \keywords, \volume, \pubyear]; 1 missing file[iaus.cls].
93119 2013-03-13 04:08:09 /0806/0806.1423 5640000[Align, \xymatrix, \ar]; 1 missing file[xy.sty].
93120 2013-03-13 04:08:01 /0806/0806.1437 910000[\citen].
93121 2013-03-13 04:07:33 /0806/0806.1430 0130000[\endfoot, Align, \endhead, \endfirsthead, {longtable}]; 1 missing file[aalongtable.sty].
93122 2013-03-13 04:07:06 /0806/0806.1424 440000[\figcaption, \newfixedcaption]; 2 missing files[xy.sty, ccaption.sty].
93123 2013-03-13 04:07:01 /0806/0806.1415 1640000[\nar, \na].
93124 2013-03-13 04:06:54 /0806/0806.1427 710000[\al@[].
93125 2013-03-13 04:06:24 /0806/0806.1414 940000[\celsius, \unit, \degree]; 1 missing file[gensymb.sty].
93126 2013-03-13 04:05:05 /0806/0806.1375 1530000[{theacknowledgments}, \layoutstyle, \classification].
93127 2013-03-13 04:05:05 /0806/0806.1378 220000[\geometry]; 1 missing file[parskip.sty].
93128 2013-03-13 04:04:26 /0806/0806.1336 4860000[Align, \xymatrix, \ar]; 1 missing file[sw20lbck.sty].
93129 2013-03-13 04:04:14 /0806/0806.1372 3420000[\psfrag, {proof}]; 1 missing file[IEEEtran.cls].
93130 2013-03-13 04:03:54 /0806/0806.1324 11570000[\xymatrixcolsep, Align, \SelectTips, \xymatrix, \ar, \xymatrixrowsep]; 1 missing file[xy.sty].
93131 2013-03-13 04:03:24 /0806/0806.1358 1230000[{sidewaysfigure}]; 1 missing file[psboxit.sty].
93132 2013-03-13 04:03:05 /0806/0806.1359 240000[\theendnotes, \endnote].
93133 2013-03-13 04:02:54 /0806/0806.1350 2510000[\psfrag].
93134 2013-03-13 04:02:43 /0806/0806.1339 21380000[{lemma}, \catchline, {theorem}, \keywords, {example}, {definition}, \email, {history}, {corollary}, {remark}, \revised, {proof}, {proposition}, \received]; 1 missing file[ws.sty].
93135 2013-03-13 04:02:41 /0806/0806.1347 2760000[\\, \title, \date, \and, \thanks, \author].
93136 2013-03-13 04:02:25 /0806/0806.1346 3100000[\includegraphics, \shortauthors, \email, \shorttitle, \afiliations, \authors]; 1 missing file[icrctc07.sty].
93137 2013-03-13 04:01:55 /0806/0806.1261 176110000[{xy}, \theoremstyle, \theoremsymbol, \xymatrix, \theoremheaderfont, Align, \theorembodyfont, \theoremseparator, \ar]; 2 missing files[xy.sty, scrartcl.cls].
93138 2013-03-13 04:01:51 /0806/0806.1351 410000[\marginsize].
93139 2013-03-13 04:01:33 /0806/0806.1337 030000[\layoutstyle, \classification]; 1 missing file[{aipcheck}].
93140 2013-03-13 04:01:21 /0806/0806.1326 710000[\normalem].
93141 2013-03-13 04:01:19 /0806/0806.1293 129390000[{lemma}, {theorem}, {corollary}, {AMS}, \endproof, {proof}, \thetheorem, {proposition}].
93142 2013-03-13 04:00:52 /0806/0806.1312 660000[\bfP, Align, \xymatrix, \ar]; 2 missing files[ot2.fontmap, xy.sty].
93143 2013-03-13 04:00:43 /0806/0806.1303 4210000[\theappendix].
93144 2013-03-13 04:00:11 /0806/0806.1317 040000[{theacknowledgments}, \layoutstyle, \classification]; 1 missing file[{aipcheck}].
93145 2013-03-13 04:00:10 /0806/0806.1297 56170000[\pgfputat, \pgfclosepath, {pgfpicture}, \color, \pgfbox, \pgfpoint, \pgfmoveto, \pgffill, \pgfsetlinewidth, \pgfsetdash, \pgfxy, \pgflineto, \pgfcurveto, \pgfsetyvec, \pgfsetxvec, \pgfstroke]; 1 missing file[pgf.sty].
93146 2013-03-13 03:59:54 /0806/0806.1305 030000[\citeyear, \astroncite]; 1 missing file[astron.sty].
93147 2013-03-13 03:59:40 /0806/0806.1286 106110000[{SCfigure}]; 1 missing file[sidecap.sty].
93148 2013-03-13 03:59:35 /0806/0806.1240 8130000[\bra, \slashed, \ket].
93149 2013-03-13 03:59:31 /0806/0806.1290 8140000[\Issue, \inst, \accepted, \Month, \institute, \Yearsubmission, \Volume, \Yearpublication, \publonline, \DOI, \email, \Pagespan, \fnmsep, \received].
93150 2013-03-13 03:59:18 /0806/0806.1291 19110000[{lemma}, {theorem}, \endproof, \thetheorem, {romannum}, {AMS}, {proof}, \diag].
93151 2013-03-13 03:58:25 /0806/0806.1281 185170000[\titlecomment, \lsuper, \lmcsheading, \qed, \proves, \keywords, \proof, Align, \address, \thethm, \rsuper, \email, \subjclass, \infer, \SB, {thm}]; 2 missing files[611.sty, LMCS.cls].
93152 2013-03-13 03:58:05 /0806/0806.1255 6520000[\rrbracket, \llbracket].
93153 2013-03-13 03:57:39 /0806/0806.1275 5040000[{\statementHopf}, {\statementSchwarz}].
93154 2013-03-13 03:57:13 /0806/0806.1269 8420000[\DeclareRobustCommand, \newarrow, \rTo, \newdiagramgrid, \pdflastximage, \pdfrefximage, Align, \pdfximage, \rIMapsto, \bibselect, {diagram}]; 1 missing file[subdepth.sty].
93155 2013-03-13 03:56:55 /0806/0806.1271 060000[{empfile}, {emp}].
93156 2013-03-13 03:56:02 /0806/0806.1259 24320000[\citeauthoryear, \citep, \doi, \jvol, \issn, \jyear, \includegraphics, \jmonth, \jnum, \issnp]; 1 missing file[gGAF2e.cls].
93157 2013-03-13 03:55:59 /0806/0806.1262 1510000[\cortext].
93158 2013-03-13 03:55:46 /0806/0806.1212 34320000[Align, \xymatrix, \ar]; 9 missing files[xycurve.sty, xymatrix.sty, xyline.sty, xyarrow.sty, xycmtip.sty, xycolor.sty, xyrotate.sty, xyframe.sty, xygraph.sty].
93159 2013-03-13 03:55:28 /0806/0806.1244 060000[\keyword, \PACS, \topage, \frompage, \authors]; 1 missing file[spadre2008.sty].
93160 2013-03-13 03:55:14 /0806/0806.1188 35110000[\color, \SelectTips]; 9 missing files[xycurve.sty, xymatrix.sty, xyline.sty, xyarrow.sty, xycmtip.sty, xycolor.sty, xyrotate.sty, xyframe.sty, xygraph.sty].
93161 2013-03-13 03:54:56 /0806/0806.1224 5810000[\theappendix].
93162 2013-03-13 03:54:47 /0806/0806.1239 260000[\keyword, \PACS, \topage, \frompage, \authors]; 1 missing file[spadre2008.sty].
93163 2013-03-13 03:54:44 /0806/0806.1215 2650000[{IEEEkeywords}, \IEEEPARstart, \IEEEmembership, \appendices, {IEEEproof}]; 1 missing file[IEEEtran.cls].
93164 2013-03-13 03:54:38 /0806/0806.1230 1910000[\cancel].
93165 2013-03-13 03:54:24 /0806/0806.1210 20210000[\FRAME].
93166 2013-03-13 03:54:23 /0806/0806.1228 1020000[\frqq, \flqq].
93167 2013-03-13 03:54:01 /0806/0806.1171 5050000[\dashline]; 2 missing files[oldgerm.sty, mathbbol.sty].
93168 2013-03-13 03:53:56 /0806/0806.1211 040000[\extrasenglish, \dateenglish, \captionsenglish]; 1 missing file[esint.sty].
93169 2013-03-13 03:53:33 /0806/0806.1203 1110000[\FRAME].
93170 2013-03-13 03:53:16 /0806/0806.1195 1830000[\varv]; 1 missing file[tipa.sty].
93171 2013-03-13 03:53:11 /0806/0806.1191 530000[\normalem].
93172 2013-03-13 03:52:30 /0806/0806.1199 1120000[\And]; 1 missing file[nips07submit_e.sty].
93173 2013-03-13 03:52:18 /0806/0806.1183 1530000[\address, \bodymatter, \keywords]; 1 missing file[ws-procs9x6.25Dec2007.cls].
93174 2013-03-13 03:52:07 /0806/0806.1154 9340000[Align, \xymatrix, \ar]; 1 missing file[xy.sty].
93175 2013-03-13 03:51:57 /0806/0806.1175 2070000[\dottedline, \drawline]; 2 missing files[oldgerm.sty, mathbbol.sty].
93176 2013-03-13 03:51:56 /0806/0806.1173 4690000[{lemma}, {theorem}, \ams, {definition}, \authorone, \addressone, \authornames, \shorttitle, {proposition}].
93177 2013-03-13 03:51:47 /0806/0806.1186 5140000[\Book, \pacs, \inst, \shortauthor, \institute, \onefigure, \acknowledgments, \Page, \Publ, \shorttitle, \Name, \Editor, \Year, \REVIEW]; 1 missing file[epl2.cls].
93178 2013-03-13 03:51:33 /0806/0806.1179 15190000[{fmffile}, \Tcircle, {fmfgraph}, \fmf, \fmflabel, \fmfbottom, \ncput, \fmftop, \pstree, {fmfgraph*}, \fmfleft, \fmfright]; 1 missing file[pst-tree.sty].
93179 2013-03-13 03:51:09 /0806/0806.1160 1120000[{algorithm}].
93180 2013-03-13 03:50:59 /0806/0806.1092 16640000[{lemma}, {theorem}, {corollary}, {proof}].
93181 2013-03-13 03:50:59 /0806/0806.1161 010000[\unit].
93182 2013-03-13 03:50:47 /0806/0806.1150 3820000[\mathds, \mathinner].
93183 2013-03-13 03:50:43 /0806/0806.1162 520000[\email, \affiliation]; 1 missing file[qm2008_abs.cls].
93184 2013-03-13 03:50:35 /0806/0806.1148 2150000[\Titleofalgo, \SetTitleSty, {algorithm}, \ForEach, \While].
93185 2013-03-13 03:49:41 /0806/0806.1137 420000[\U, \QTR].
93186 2013-03-13 03:49:28 /0806/0806.1132 32480000[Align, {vmatrix}, {align}, \text]; 2 missing files[aas_macros.sty, spr-astr-addons.sty].
93187 2013-03-13 03:49:26 /0806/0806.1117 7440000[Align, \xymatrix, \ar]; 1 missing file[xy.sty].
93188 2013-03-13 03:49:04 /0806/0806.1130 180000[\ccode, \catchline, \tbl, \address, \colrule, \botrule, \toprule, \text]; 1 missing file[arxiv2.cls].
93189 2013-03-13 03:48:31 /0806/0806.1113 2410000[\theappendix].
93190 2013-03-13 03:48:16 /0806/0806.1022 28790000[Align, \citelist, \SelectTips, \xymatrix, \ar]; 1 missing file[xy.sty].
93191 2013-03-13 03:48:11 /0806/0806.0987 7150000[\psfrag, {psfrags}].
93192 2013-03-13 03:48:06 /0806/0806.1098 3710000[\psfrag].
93193 2013-03-13 03:48:04 /0806/0806.1104 9010000[\arXivid].
93194 2013-03-13 03:47:43 /0806/0806.1083 290000[\geometry].
93195 2013-03-13 03:47:03 /0806/0806.1082 7150000[\node, \arrow, \dgARROWLENGTH, {diagram}]; 1 missing file[xy.sty].
93196 2013-03-13 03:46:47 /0806/0806.1064 5110000[\TCItag].
93197 2013-03-13 03:46:19 /0806/0806.1073 130000[{theacknowledgments}, \layoutstyle, \classification].
93198 2013-03-13 03:45:39 /0806/0806.1054 410000[\theappendix].
93199 2013-03-13 03:45:31 /0806/0806.1070 030000[\extrasenglish, \dateenglish, \captionsenglish].
93200 2013-03-13 03:45:28 /0806/0806.1042 0120000[\xymatrix, \xy, \dateenglish, \extrasenglish, \nicefrac, \endxy, Align, \dir, \captionsenglish, \ar]; 1 missing file[xy.sty].
<<< >>>

[0] [200] [400] [600] [800] [1000] [1200] [1400] [1600] [1800] [2000] [2200] [2400] [2600] [2800] [3000] [3200] [3400] [3600] [3800] [4000] [4200] [4400] [4600] [4800] [5000] [5200] [5400] [5600] [5800] [6000] [6200] [6400] [6600] [6800] [7000] [7200] [7400] [7600] [7800] [8000] [8200] [8400] [8600] [8800] [9000] [9200] [9400] [9600] [9800] [10000] [10200] [10400] [10600] [10800] [11000] [11200] [11400] [11600] [11800] [12000] [12200] [12400] [12600] [12800] [13000] [13200] [13400] [13600] [13800] [14000] [14200] [14400] [14600] [14800] [15000] [15200] [15400] [15600] [15800] [16000] [16200] [16400] [16600] [16800] [17000] [17200] [17400] [17600] [17800] [18000] [18200] [18400] [18600] [18800] [19000] [19200] [19400] [19600] [19800] [20000] [20200] [20400] [20600] [20800] [21000] [21200] [21400] [21600] [21800] [22000] [22200] [22400] [22600] [22800] [23000] [23200] [23400] [23600] [23800] [24000] [24200] [24400] [24600] [24800] [25000] [25200] [25400] [25600] [25800] [26000] [26200] [26400] [26600] [26800] [27000] [27200] [27400] [27600] [27800] [28000] [28200] [28400] [28600] [28800] [29000] [29200] [29400] [29600] [29800] [30000] [30200] [30400] [30600] [30800] [31000] [31200] [31400] [31600] [31800] [32000] [32200] [32400] [32600] [32800] [33000] [33200] [33400] [33600] [33800] [34000] [34200] [34400] [34600] [34800] [35000] [35200] [35400] [35600] [35800] [36000] [36200] [36400] [36600] [36800] [37000] [37200] [37400] [37600] [37800] [38000] [38200] [38400] [38600] [38800] [39000] [39200] [39400] [39600] [39800] [40000] [40200] [40400] [40600] [40800] [41000] [41200] [41400] [41600] [41800] [42000] [42200] [42400] [42600] [42800] [43000] [43200] [43400] [43600] [43800] [44000] [44200] [44400] [44600] [44800] [45000] [45200] [45400] [45600] [45800] [46000] [46200] [46400] [46600] [46800] [47000] [47200] [47400] [47600] [47800] [48000] [48200] [48400] [48600] [48800] [49000] [49200] [49400] [49600] [49800] [50000] [50200] [50400] [50600] [50800] [51000] [51200] [51400] [51600] [51800] [52000] [52200] [52400] [52600] [52800] [53000] [53200] [53400] [53600] [53800] [54000] [54200] [54400] [54600] [54800] [55000] [55200] [55400] [55600] [55800] [56000] [56200] [56400] [56600] [56800] [57000] [57200] [57400] [57600] [57800] [58000] [58200] [58400] [58600] [58800] [59000] [59200] [59400] [59600] [59800] [60000] [60200] [60400] [60600] [60800] [61000] [61200] [61400] [61600] [61800] [62000] [62200] [62400] [62600] [62800] [63000] [63200] [63400] [63600] [63800] [64000] [64200] [64400] [64600] [64800] [65000] [65200] [65400] [65600] [65800] [66000] [66200] [66400] [66600] [66800] [67000] [67200] [67400] [67600] [67800] [68000] [68200] [68400] [68600] [68800] [69000] [69200] [69400] [69600] [69800] [70000] [70200] [70400] [70600] [70800] [71000] [71200] [71400] [71600] [71800] [72000] [72200] [72400] [72600] [72800] [73000] [73200] [73400] [73600] [73800] [74000] [74200] [74400] [74600] [74800] [75000] [75200] [75400] [75600] [75800] [76000] [76200] [76400] [76600] [76800] [77000] [77200] [77400] [77600] [77800] [78000] [78200] [78400] [78600] [78800] [79000] [79200] [79400] [79600] [79800] [80000] [80200] [80400] [80600] [80800] [81000] [81200] [81400] [81600] [81800] [82000] [82200] [82400] [82600] [82800] [83000] [83200] [83400] [83600] [83800] [84000] [84200] [84400] [84600] [84800] [85000] [85200] [85400] [85600] [85800] [86000] [86200] [86400] [86600] [86800] [87000] [87200] [87400] [87600] [87800] [88000] [88200] [88400] [88600] [88800] [89000] [89200] [89400] [89600] [89800] [90000] [90200] [90400] [90600] [90800] [91000] [91200] [91400] [91600] [91800] [92000] [92200] [92400] [92600] [92800] [93000] [93200] [93400] [93600] [93800] [94000] [94200] [94400] [94600] [94800] [95000] [95200] [95400] [95600] [95800] [96000] [96200] [96400] [96600] [96800] [97000] [97200] [97400] [97600] [97800] [98000] [98200] [98400] [98600] [98800] [99000] [99200] [99400] [99600] [99800] [100000] [100200] [100400] [100600] [100800] [101000] [101200] [101400] [101600] [101800] [102000] [102200] [102400] [102600] [102800] [103000] [103200] [103400] [103600] [103800] [104000] [104200] [104400] [104600] [104800] [105000] [105200] [105400] [105600] [105800] [106000] [106200] [106400] [106600] [106800] [107000] [107200] [107400] [107600] [107800] [108000] [108200] [108400] [108600] [108800] [109000] [109200] [109400] [109600] [109800] [110000] [110200] [110400] [110600] [110800] [111000] [111200] [111400] [111600] [111800] [112000] [112200] [112400] [112600] [112800] [113000] [113200] [113400] [113600] [113800] [114000] [114200] [114400] [114600] [114800] [115000] [115200] [115400] [115600] [115800] [116000] [116200] [116400] [116600] [116800] [117000] [117200] [117400] [117600] [117800] [118000] [118200] [118400] [118600] [118800] [119000] [119200] [119400] [119600] [119800] [120000] [120200] [120400] [120600] [120800] [121000] [121200] [121400] [121600] [121800] [122000] [122200] [122400] [122600] [122800] [123000] [123200] [123400] [123600] [123800] [124000] [124200] [124400] [124600] [124800] [125000] [125200] [125400] [125600] [125800] [126000] [126200] [126400] [126600] [126800] [127000] [127200] [127400] [127600] [127800] [128000] [128200] [128400] [128600] [128800] [129000] [129200] [129400] [129600] [129800] [130000] [130200] [130400] [130600] [130800] [131000] [131200] [131400] [131600] [131800] [132000] [132200] [132400] [132600] [132800] [133000] [133200] [133400] [133600] [133800] [134000] [134200] [134400] [134600] [134800] [135000] [135200] [135400] [135600] [135800] [136000] [136200] [136400] [136600] [136800] [137000] [137200] [137400] [137600] [137800] [138000] [138200] [138400] [138600] [138800] [139000] [139200] [139400] [139600] [139800] [140000] [140200] [140400] [140600] [140800] [141000] [141200] [141400] [141600] [141800] [142000] [142200] [142400] [142600] [142800] [143000] [143200] [143400] [143600] [143800] [144000] [144200] [144400] [144600] [144800] [145000] [145200] [145400] [145600] [145800] [146000] [146200] [146400] [146600] [146800] [147000] [147200] [147400] [147600] [147800] [148000] [148200] [148400] [148600] [148800] [149000] [149200] [149400] [149600] [149800] [150000] [150200] [150400] [150600] [150800] [151000] [151200] [151400] [151600] [151800] [152000] [152200] [152400] [152600] [152800] [153000] [153200] [153400] [153600] [153800] [154000] [154200] [154400] [154600] [154800] [155000] [155200] [155400] [155600] [155800] [156000] [156200] [156400] [156600] [156800] [157000] [157200] [157400] [157600] [157800] [158000] [158200] [158400] [158600] [158800] [159000] [159200] [159400] [159600] [159800] [160000] [160200] [160400] [160600] [160800] [161000] [161200] [161400] [161600] [161800] [162000] [162200] [162400] [162600] [162800] [163000] [163200] [163400] [163600] [163800] [164000] [164200] [164400] [164600]
 
  The service has been written by
Heinrich Stamerjohanns